sensor_id;sensor_type;location;lat;lon;timestamp;P1;durP1;ratioP1;P2;durP2;ratioP2
7971;SDS011;4031;49.758;6.120;2022-12-11T00:00:38;19.07;;;9.93;;
7971;SDS011;4031;49.758;6.120;2022-12-11T00:03:04;25.90;;;11.15;;
7971;SDS011;4031;49.758;6.120;2022-12-11T00:05:31;18.30;;;10.60;;
7971;SDS011;4031;49.758;6.120;2022-12-11T00:07:57;13.55;;;8.30;;
7971;SDS011;4031;49.758;6.120;2022-12-11T00:10:23;20.40;;;9.23;;
7971;SDS011;4031;49.758;6.120;2022-12-11T00:12:49;14.27;;;9.35;;
7971;SDS011;4031;49.758;6.120;2022-12-11T00:15:14;16.60;;;7.83;;
7971;SDS011;4031;49.758;6.120;2022-12-11T00:17:40;16.30;;;9.70;;
7971;SDS011;4031;49.758;6.120;2022-12-11T00:20:06;19.23;;;11.30;;
7971;SDS011;4031;49.758;6.120;2022-12-11T00:22:33;16.17;;;9.23;;
7971;SDS011;4031;49.758;6.120;2022-12-11T00:24:59;17.92;;;9.13;;
7971;SDS011;4031;49.758;6.120;2022-12-11T00:27:25;16.60;;;10.30;;
7971;SDS011;4031;49.758;6.120;2022-12-11T00:29:50;19.97;;;9.80;;
7971;SDS011;4031;49.758;6.120;2022-12-11T00:32:16;22.90;;;11.20;;
7971;SDS011;4031;49.758;6.120;2022-12-11T00:34:42;21.20;;;9.17;;
7971;SDS011;4031;49.758;6.120;2022-12-11T00:37:07;16.23;;;9.07;;
7971;SDS011;4031;49.758;6.120;2022-12-11T00:39:33;17.57;;;9.27;;
7971;SDS011;4031;49.758;6.120;2022-12-11T00:41:59;16.90;;;9.40;;
7971;SDS011;4031;49.758;6.120;2022-12-11T00:44:24;17.33;;;9.50;;
7971;SDS011;4031;49.758;6.120;2022-12-11T00:46:50;19.03;;;9.17;;
7971;SDS011;4031;49.758;6.120;2022-12-11T00:49:16;15.93;;;8.83;;
7971;SDS011;4031;49.758;6.120;2022-12-11T00:51:42;20.60;;;10.80;;
7971;SDS011;4031;49.758;6.120;2022-12-11T00:54:07;18.73;;;9.40;;
7971;SDS011;4031;49.758;6.120;2022-12-11T00:56:33;15.10;;;9.00;;
7971;SDS011;4031;49.758;6.120;2022-12-11T00:58:59;15.17;;;8.27;;
7971;SDS011;4031;49.758;6.120;2022-12-11T01:01:24;17.50;;;8.87;;
7971;SDS011;4031;49.758;6.120;2022-12-11T01:03:50;18.97;;;9.07;;
7971;SDS011;4031;49.758;6.120;2022-12-11T01:06:18;15.95;;;8.48;;
7971;SDS011;4031;49.758;6.120;2022-12-11T01:08:48;16.15;;;9.02;;
7971;SDS011;4031;49.758;6.120;2022-12-11T01:11:34;15.05;;;8.45;;
7971;SDS011;4031;49.758;6.120;2022-12-11T01:13:59;17.77;;;10.57;;
7971;SDS011;4031;49.758;6.120;2022-12-11T01:16:25;19.47;;;9.43;;
7971;SDS011;4031;49.758;6.120;2022-12-11T01:18:51;26.63;;;10.57;;
7971;SDS011;4031;49.758;6.120;2022-12-11T01:21:17;12.70;;;8.30;;
7971;SDS011;4031;49.758;6.120;2022-12-11T01:23:43;16.23;;;9.10;;
7971;SDS011;4031;49.758;6.120;2022-12-11T01:26:09;16.97;;;8.10;;
7971;SDS011;4031;49.758;6.120;2022-12-11T01:28:37;14.93;;;8.30;;
7971;SDS011;4031;49.758;6.120;2022-12-11T01:31:11;16.90;;;9.80;;
7971;SDS011;4031;49.758;6.120;2022-12-11T01:33:40;15.05;;;9.40;;
7971;SDS011;4031;49.758;6.120;2022-12-11T01:36:07;15.13;;;9.02;;
7971;SDS011;4031;49.758;6.120;2022-12-11T01:38:36;13.90;;;8.73;;
7971;SDS011;4031;49.758;6.120;2022-12-11T01:41:01;17.00;;;8.47;;
7971;SDS011;4031;49.758;6.120;2022-12-11T01:43:27;13.07;;;7.97;;
7971;SDS011;4031;49.758;6.120;2022-12-11T01:45:54;15.00;;;9.00;;
7971;SDS011;4031;49.758;6.120;2022-12-11T01:48:21;16.08;;;7.72;;
7971;SDS011;4031;49.758;6.120;2022-12-11T01:50:51;12.13;;;8.10;;
7971;SDS011;4031;49.758;6.120;2022-12-11T01:53:24;12.88;;;8.98;;
7971;SDS011;4031;49.758;6.120;2022-12-11T01:55:58;17.10;;;8.60;;
7971;SDS011;4031;49.758;6.120;2022-12-11T01:58:28;14.18;;;7.20;;
7971;SDS011;4031;49.758;6.120;2022-12-11T02:01:08;12.38;;;7.80;;
7971;SDS011;4031;49.758;6.120;2022-12-11T02:03:40;19.05;;;9.18;;
7971;SDS011;4031;49.758;6.120;2022-12-11T02:06:26;16.87;;;8.93;;
7971;SDS011;4031;49.758;6.120;2022-12-11T02:09:00;13.02;;;8.23;;
7971;SDS011;4031;49.758;6.120;2022-12-11T02:11:32;16.30;;;8.45;;
7971;SDS011;4031;49.758;6.120;2022-12-11T02:20:21;13.18;;;7.40;;
7971;SDS011;4031;49.758;6.120;2022-12-11T02:25:38;13.40;;;6.93;;
7971;SDS011;4031;49.758;6.120;2022-12-11T02:31:03;16.83;;;7.90;;
7971;SDS011;4031;49.758;6.120;2022-12-11T02:33:40;11.38;;;7.30;;
7971;SDS011;4031;49.758;6.120;2022-12-11T02:36:17;7.43;;;4.85;;
7971;SDS011;4031;49.758;6.120;2022-12-11T02:38:49;9.35;;;6.32;;
7971;SDS011;4031;49.758;6.120;2022-12-11T02:41:18;12.20;;;7.25;;
7971;SDS011;4031;49.758;6.120;2022-12-11T02:43:46;12.80;;;7.30;;
7971;SDS011;4031;49.758;6.120;2022-12-11T02:46:13;10.32;;;6.20;;
7971;SDS011;4031;49.758;6.120;2022-12-11T02:48:41;9.05;;;5.85;;
7971;SDS011;4031;49.758;6.120;2022-12-11T02:51:08;12.98;;;6.97;;
7971;SDS011;4031;49.758;6.120;2022-12-11T02:53:36;11.90;;;6.68;;
7971;SDS011;4031;49.758;6.120;2022-12-11T02:56:11;13.15;;;7.25;;
7971;SDS011;4031;49.758;6.120;2022-12-11T02:58:46;16.42;;;7.10;;
7971;SDS011;4031;49.758;6.120;2022-12-11T03:01:16;7.85;;;5.63;;
7971;SDS011;4031;49.758;6.120;2022-12-11T03:03:42;13.03;;;6.43;;
7971;SDS011;4031;49.758;6.120;2022-12-11T03:06:08;14.77;;;6.13;;
7971;SDS011;4031;49.758;6.120;2022-12-11T03:08:39;11.35;;;7.35;;
7971;SDS011;4031;49.758;6.120;2022-12-11T03:11:08;12.83;;;6.93;;
7971;SDS011;4031;49.758;6.120;2022-12-11T03:13:36;13.02;;;6.03;;
7971;SDS011;4031;49.758;6.120;2022-12-11T03:16:09;14.55;;;7.40;;
7971;SDS011;4031;49.758;6.120;2022-12-11T03:19:03;14.75;;;6.90;;
7971;SDS011;4031;49.758;6.120;2022-12-11T03:24:40;13.05;;;7.13;;
7971;SDS011;4031;49.758;6.120;2022-12-11T03:27:14;13.02;;;6.88;;
7971;SDS011;4031;49.758;6.120;2022-12-11T03:29:53;16.60;;;5.75;;
7971;SDS011;4031;49.758;6.120;2022-12-11T03:32:26;17.58;;;6.70;;
7971;SDS011;4031;49.758;6.120;2022-12-11T03:34:57;17.92;;;8.20;;
7971;SDS011;4031;49.758;6.120;2022-12-11T03:37:32;25.05;;;11.45;;
7971;SDS011;4031;49.758;6.120;2022-12-11T03:40:03;11.98;;;5.60;;
7971;SDS011;4031;49.758;6.120;2022-12-11T03:42:35;10.75;;;5.55;;
7971;SDS011;4031;49.758;6.120;2022-12-11T03:45:03;12.43;;;6.82;;
7971;SDS011;4031;49.758;6.120;2022-12-11T03:47:30;11.55;;;6.45;;
7971;SDS011;4031;49.758;6.120;2022-12-11T03:49:57;19.17;;;7.68;;
7971;SDS011;4031;49.758;6.120;2022-12-11T03:52:26;12.20;;;6.88;;
7971;SDS011;4031;49.758;6.120;2022-12-11T03:54:53;9.18;;;6.20;;
7971;SDS011;4031;49.758;6.120;2022-12-11T03:57:27;9.88;;;7.03;;
7971;SDS011;4031;49.758;6.120;2022-12-11T03:59:58;11.55;;;5.55;;
7971;SDS011;4031;49.758;6.120;2022-12-11T04:02:23;8.37;;;5.50;;
7971;SDS011;4031;49.758;6.120;2022-12-11T04:04:49;18.10;;;6.73;;
7971;SDS011;4031;49.758;6.120;2022-12-11T04:07:15;11.50;;;5.23;;
7971;SDS011;4031;49.758;6.120;2022-12-11T04:09:41;17.10;;;6.40;;
7971;SDS011;4031;49.758;6.120;2022-12-11T04:12:06;20.83;;;7.80;;
7971;SDS011;4031;49.758;6.120;2022-12-11T04:14:32;11.50;;;6.37;;
7971;SDS011;4031;49.758;6.120;2022-12-11T04:17:16;15.57;;;6.07;;
7971;SDS011;4031;49.758;6.120;2022-12-11T04:20:03;8.88;;;4.93;;
7971;SDS011;4031;49.758;6.120;2022-12-11T04:22:48;10.30;;;5.10;;
7971;SDS011;4031;49.758;6.120;2022-12-11T04:25:49;15.50;;;6.50;;
7971;SDS011;4031;49.758;6.120;2022-12-11T04:28:15;6.55;;;4.72;;
7971;SDS011;4031;49.758;6.120;2022-12-11T04:30:46;9.17;;;5.33;;
7971;SDS011;4031;49.758;6.120;2022-12-11T04:33:13;6.68;;;3.47;;
7971;SDS011;4031;49.758;6.120;2022-12-11T04:35:39;7.10;;;4.40;;
7971;SDS011;4031;49.758;6.120;2022-12-11T04:38:04;9.97;;;5.40;;
7971;SDS011;4031;49.758;6.120;2022-12-11T04:40:30;10.00;;;6.00;;
7971;SDS011;4031;49.758;6.120;2022-12-11T04:42:56;10.40;;;5.23;;
7971;SDS011;4031;49.758;6.120;2022-12-11T04:45:22;10.57;;;5.17;;
7971;SDS011;4031;49.758;6.120;2022-12-11T04:47:47;7.40;;;3.97;;
7971;SDS011;4031;49.758;6.120;2022-12-11T04:50:13;8.73;;;4.10;;
7971;SDS011;4031;49.758;6.120;2022-12-11T04:52:40;7.97;;;5.10;;
7971;SDS011;4031;49.758;6.120;2022-12-11T04:55:06;7.18;;;3.80;;
7971;SDS011;4031;49.758;6.120;2022-12-11T04:57:33;10.43;;;6.35;;
7971;SDS011;4031;49.758;6.120;2022-12-11T04:59:59;8.85;;;5.80;;
7971;SDS011;4031;49.758;6.120;2022-12-11T05:02:25;5.45;;;3.75;;
7971;SDS011;4031;49.758;6.120;2022-12-11T05:04:51;8.30;;;3.90;;
7971;SDS011;4031;49.758;6.120;2022-12-11T05:07:17;8.80;;;5.13;;
7971;SDS011;4031;49.758;6.120;2022-12-11T05:09:42;6.33;;;4.30;;
7971;SDS011;4031;49.758;6.120;2022-12-11T05:12:08;8.40;;;3.90;;
7971;SDS011;4031;49.758;6.120;2022-12-11T05:14:34;9.33;;;4.40;;
7971;SDS011;4031;49.758;6.120;2022-12-11T05:17:00;9.17;;;4.20;;
7971;SDS011;4031;49.758;6.120;2022-12-11T05:19:25;9.00;;;5.10;;
7971;SDS011;4031;49.758;6.120;2022-12-11T05:21:51;9.27;;;5.00;;
7971;SDS011;4031;49.758;6.120;2022-12-11T05:24:17;5.53;;;3.67;;
7971;SDS011;4031;49.758;6.120;2022-12-11T05:26:43;7.82;;;5.07;;
7971;SDS011;4031;49.758;6.120;2022-12-11T05:29:09;8.50;;;5.00;;
7971;SDS011;4031;49.758;6.120;2022-12-11T05:31:35;9.47;;;3.80;;
7971;SDS011;4031;49.758;6.120;2022-12-11T05:34:00;19.03;;;5.03;;
7971;SDS011;4031;49.758;6.120;2022-12-11T05:36:29;13.05;;;5.53;;
7971;SDS011;4031;49.758;6.120;2022-12-11T05:38:57;9.73;;;4.88;;
7971;SDS011;4031;49.758;6.120;2022-12-11T05:41:25;8.52;;;5.03;;
7971;SDS011;4031;49.758;6.120;2022-12-11T05:43:53;12.07;;;4.32;;
7971;SDS011;4031;49.758;6.120;2022-12-11T05:46:22;12.07;;;4.88;;
7971;SDS011;4031;49.758;6.120;2022-12-11T05:48:52;9.32;;;3.85;;
7971;SDS011;4031;49.758;6.120;2022-12-11T05:51:24;4.80;;;3.55;;
7971;SDS011;4031;49.758;6.120;2022-12-11T05:53:51;6.13;;;5.20;;
7971;SDS011;4031;49.758;6.120;2022-12-11T05:56:20;11.13;;;4.82;;
7971;SDS011;4031;49.758;6.120;2022-12-11T05:58:54;7.65;;;4.40;;
7971;SDS011;4031;49.758;6.120;2022-12-11T06:01:26;5.55;;;4.10;;
7971;SDS011;4031;49.758;6.120;2022-12-11T06:04:01;7.15;;;3.42;;
7971;SDS011;4031;49.758;6.120;2022-12-11T06:06:27;9.82;;;4.13;;
7971;SDS011;4031;49.758;6.120;2022-12-11T06:08:54;8.73;;;4.33;;
7971;SDS011;4031;49.758;6.120;2022-12-11T06:11:22;7.95;;;4.88;;
7971;SDS011;4031;49.758;6.120;2022-12-11T06:13:49;6.97;;;3.50;;
7971;SDS011;4031;49.758;6.120;2022-12-11T06:16:15;6.75;;;3.20;;
7971;SDS011;4031;49.758;6.120;2022-12-11T06:18:42;10.57;;;3.60;;
7971;SDS011;4031;49.758;6.120;2022-12-11T06:21:10;6.30;;;4.15;;
7971;SDS011;4031;49.758;6.120;2022-12-11T06:23:41;8.80;;;4.45;;
7971;SDS011;4031;49.758;6.120;2022-12-11T06:26:08;11.00;;;4.72;;
7971;SDS011;4031;49.758;6.120;2022-12-11T06:28:35;8.82;;;4.60;;
7971;SDS011;4031;49.758;6.120;2022-12-11T06:31:01;10.75;;;5.18;;
7971;SDS011;4031;49.758;6.120;2022-12-11T06:33:27;12.15;;;5.80;;
7971;SDS011;4031;49.758;6.120;2022-12-11T06:35:54;10.88;;;5.25;;
7971;SDS011;4031;49.758;6.120;2022-12-11T06:38:20;8.77;;;4.40;;
7971;SDS011;4031;49.758;6.120;2022-12-11T06:40:53;11.77;;;5.70;;
7971;SDS011;4031;49.758;6.120;2022-12-11T06:43:20;6.28;;;5.20;;
7971;SDS011;4031;49.758;6.120;2022-12-11T06:45:46;12.10;;;5.90;;
7971;SDS011;4031;49.758;6.120;2022-12-11T06:48:12;8.83;;;5.20;;
7971;SDS011;4031;49.758;6.120;2022-12-11T06:50:37;13.60;;;5.70;;
7971;SDS011;4031;49.758;6.120;2022-12-11T06:53:03;11.57;;;5.67;;
7971;SDS011;4031;49.758;6.120;2022-12-11T06:55:29;15.33;;;6.63;;
7971;SDS011;4031;49.758;6.120;2022-12-11T06:57:55;11.80;;;5.17;;
7971;SDS011;4031;49.758;6.120;2022-12-11T07:00:20;11.03;;;6.10;;
7971;SDS011;4031;49.758;6.120;2022-12-11T07:02:46;10.13;;;6.03;;
7971;SDS011;4031;49.758;6.120;2022-12-11T07:05:12;12.43;;;4.80;;
7971;SDS011;4031;49.758;6.120;2022-12-11T07:07:37;10.23;;;6.40;;
7971;SDS011;4031;49.758;6.120;2022-12-11T07:10:03;10.33;;;4.33;;
7971;SDS011;4031;49.758;6.120;2022-12-11T07:12:29;10.70;;;3.85;;
7971;SDS011;4031;49.758;6.120;2022-12-11T07:14:55;10.70;;;5.00;;
7971;SDS011;4031;49.758;6.120;2022-12-11T07:17:21;8.70;;;3.80;;
7971;SDS011;4031;49.758;6.120;2022-12-11T07:19:47;11.37;;;4.77;;
7971;SDS011;4031;49.758;6.120;2022-12-11T07:22:12;9.03;;;4.93;;
7971;SDS011;4031;49.758;6.120;2022-12-11T07:24:38;10.87;;;5.37;;
7971;SDS011;4031;49.758;6.120;2022-12-11T07:27:04;13.27;;;7.30;;
7971;SDS011;4031;49.758;6.120;2022-12-11T07:29:30;13.10;;;6.10;;
7971;SDS011;4031;49.758;6.120;2022-12-11T07:31:56;8.33;;;5.57;;
7971;SDS011;4031;49.758;6.120;2022-12-11T07:34:21;11.00;;;5.93;;
7971;SDS011;4031;49.758;6.120;2022-12-11T07:36:47;8.97;;;5.70;;
7971;SDS011;4031;49.758;6.120;2022-12-11T07:39:13;12.40;;;5.23;;
7971;SDS011;4031;49.758;6.120;2022-12-11T07:41:40;13.25;;;6.90;;
7971;SDS011;4031;49.758;6.120;2022-12-11T07:44:05;11.90;;;6.27;;
7971;SDS011;4031;49.758;6.120;2022-12-11T07:46:31;15.80;;;7.10;;
7971;SDS011;4031;49.758;6.120;2022-12-11T07:48:58;12.52;;;6.28;;
7971;SDS011;4031;49.758;6.120;2022-12-11T07:51:30;16.23;;;6.72;;
7971;SDS011;4031;49.758;6.120;2022-12-11T07:54:03;18.20;;;5.88;;
7971;SDS011;4031;49.758;6.120;2022-12-11T07:56:44;23.15;;;7.75;;
7971;SDS011;4031;49.758;6.120;2022-12-11T07:59:11;15.52;;;6.93;;
7971;SDS011;4031;49.758;6.120;2022-12-11T08:04:36;15.60;;;7.55;;
7971;SDS011;4031;49.758;6.120;2022-12-11T08:07:01;17.23;;;7.55;;
7971;SDS011;4031;49.758;6.120;2022-12-11T08:09:27;19.93;;;7.67;;
7971;SDS011;4031;49.758;6.120;2022-12-11T08:11:53;19.43;;;8.17;;
7971;SDS011;4031;49.758;6.120;2022-12-11T08:14:19;13.73;;;7.13;;
7971;SDS011;4031;49.758;6.120;2022-12-11T08:16:45;14.07;;;6.30;;
7971;SDS011;4031;49.758;6.120;2022-12-11T08:19:11;15.43;;;7.77;;
7971;SDS011;4031;49.758;6.120;2022-12-11T08:21:37;22.58;;;8.98;;
7971;SDS011;4031;49.758;6.120;2022-12-11T08:24:04;21.73;;;8.98;;
7971;SDS011;4031;49.758;6.120;2022-12-11T08:26:30;20.03;;;8.73;;
7971;SDS011;4031;49.758;6.120;2022-12-11T08:28:57;20.73;;;10.68;;
7971;SDS011;4031;49.758;6.120;2022-12-11T08:31:23;19.42;;;9.15;;
7971;SDS011;4031;49.758;6.120;2022-12-11T08:33:50;25.83;;;10.52;;
7971;SDS011;4031;49.758;6.120;2022-12-11T08:36:20;17.38;;;8.95;;
7971;SDS011;4031;49.758;6.120;2022-12-11T08:38:48;18.02;;;8.07;;
7971;SDS011;4031;49.758;6.120;2022-12-11T08:41:15;21.80;;;9.30;;
7971;SDS011;4031;49.758;6.120;2022-12-11T08:43:43;20.52;;;10.65;;
7971;SDS011;4031;49.758;6.120;2022-12-11T08:46:11;19.38;;;9.45;;
7971;SDS011;4031;49.758;6.120;2022-12-11T08:48:37;19.13;;;9.70;;
7971;SDS011;4031;49.758;6.120;2022-12-11T08:51:06;21.67;;;8.82;;
7971;SDS011;4031;49.758;6.120;2022-12-11T08:53:36;17.75;;;9.00;;
7971;SDS011;4031;49.758;6.120;2022-12-11T08:56:04;21.52;;;9.77;;
7971;SDS011;4031;49.758;6.120;2022-12-11T08:58:33;19.98;;;8.30;;
7971;SDS011;4031;49.758;6.120;2022-12-11T09:01:04;17.95;;;7.82;;
7971;SDS011;4031;49.758;6.120;2022-12-11T09:03:36;23.25;;;10.38;;
7971;SDS011;4031;49.758;6.120;2022-12-11T09:06:07;21.92;;;10.48;;
7971;SDS011;4031;49.758;6.120;2022-12-11T09:08:38;23.13;;;10.18;;
7971;SDS011;4031;49.758;6.120;2022-12-11T09:11:06;19.40;;;9.52;;
7971;SDS011;4031;49.758;6.120;2022-12-11T09:13:36;21.00;;;8.60;;
7971;SDS011;4031;49.758;6.120;2022-12-11T09:16:03;15.02;;;7.03;;
7971;SDS011;4031;49.758;6.120;2022-12-11T09:18:32;19.90;;;7.90;;
7971;SDS011;4031;49.758;6.120;2022-12-11T09:21:01;16.30;;;8.70;;
7971;SDS011;4031;49.758;6.120;2022-12-11T09:23:29;17.70;;;8.90;;
7971;SDS011;4031;49.758;6.120;2022-12-11T09:25:55;17.63;;;8.50;;
7971;SDS011;4031;49.758;6.120;2022-12-11T09:28:21;22.80;;;8.87;;
7971;SDS011;4031;49.758;6.120;2022-12-11T09:30:48;13.23;;;7.20;;
7971;SDS011;4031;49.758;6.120;2022-12-11T09:33:14;18.13;;;8.30;;
7971;SDS011;4031;49.758;6.120;2022-12-11T09:35:40;15.95;;;8.13;;
7971;SDS011;4031;49.758;6.120;2022-12-11T09:38:06;16.80;;;8.73;;
7971;SDS011;4031;49.758;6.120;2022-12-11T09:40:32;17.55;;;7.68;;
7971;SDS011;4031;49.758;6.120;2022-12-11T09:46:09;18.35;;;7.03;;
7971;SDS011;4031;49.758;6.120;2022-12-11T09:48:42;19.27;;;8.88;;
7971;SDS011;4031;49.758;6.120;2022-12-11T09:51:21;20.83;;;7.90;;
7971;SDS011;4031;49.758;6.120;2022-12-11T09:53:52;14.73;;;7.43;;
7971;SDS011;4031;49.758;6.120;2022-12-11T09:56:22;19.43;;;6.90;;
7971;SDS011;4031;49.758;6.120;2022-12-11T10:01:42;17.83;;;7.77;;
7971;SDS011;4031;49.758;6.120;2022-12-11T10:04:29;18.07;;;8.53;;
7971;SDS011;4031;49.758;6.120;2022-12-11T10:07:22;23.67;;;9.10;;
7971;SDS011;4031;49.758;6.120;2022-12-11T10:12:55;16.52;;;8.70;;
7971;SDS011;4031;49.758;6.120;2022-12-11T10:18:16;16.80;;;6.90;;
7971;SDS011;4031;49.758;6.120;2022-12-11T10:20:47;16.90;;;6.93;;
7971;SDS011;4031;49.758;6.120;2022-12-11T10:23:23;21.20;;;8.23;;
7971;SDS011;4031;49.758;6.120;2022-12-11T10:26:03;12.93;;;7.73;;
7971;SDS011;4031;49.758;6.120;2022-12-11T10:28:35;16.15;;;7.72;;
7971;SDS011;4031;49.758;6.120;2022-12-11T10:31:13;14.60;;;7.50;;
7971;SDS011;4031;49.758;6.120;2022-12-11T10:34:04;11.93;;;7.00;;
7971;SDS011;4031;49.758;6.120;2022-12-11T10:37:03;21.33;;;8.73;;
7971;SDS011;4031;49.758;6.120;2022-12-11T10:39:30;14.60;;;7.97;;
7971;SDS011;4031;49.758;6.120;2022-12-11T10:41:56;16.63;;;8.03;;
7971;SDS011;4031;49.758;6.120;2022-12-11T10:44:23;22.70;;;7.20;;
7971;SDS011;4031;49.758;6.120;2022-12-11T10:47:02;16.60;;;7.63;;
7971;SDS011;4031;49.758;6.120;2022-12-11T10:49:38;15.63;;;7.80;;
7971;SDS011;4031;49.758;6.120;2022-12-11T10:52:19;15.40;;;7.67;;
7971;SDS011;4031;49.758;6.120;2022-12-11T10:54:57;14.77;;;8.77;;
7971;SDS011;4031;49.758;6.120;2022-12-11T10:57:27;17.00;;;8.30;;
7971;SDS011;4031;49.758;6.120;2022-12-11T10:59:56;12.20;;;7.80;;
7971;SDS011;4031;49.758;6.120;2022-12-11T11:02:56;16.57;;;7.23;;
7971;SDS011;4031;49.758;6.120;2022-12-11T11:05:16;15.97;;;7.90;;
7971;SDS011;4031;49.758;6.120;2022-12-11T11:08:02;17.00;;;9.23;;
7971;SDS011;4031;49.758;6.120;2022-12-11T11:10:47;22.20;;;10.40;;
7971;SDS011;4031;49.758;6.120;2022-12-11T11:13:27;16.77;;;9.47;;
7971;SDS011;4031;49.758;6.120;2022-12-11T11:16:05;16.87;;;8.10;;
7971;SDS011;4031;49.758;6.120;2022-12-11T11:18:36;20.23;;;9.53;;
7971;SDS011;4031;49.758;6.120;2022-12-11T11:21:05;24.27;;;10.10;;
7971;SDS011;4031;49.758;6.120;2022-12-11T11:23:31;17.87;;;8.30;;
7971;SDS011;4031;49.758;6.120;2022-12-11T11:25:59;19.50;;;8.27;;
7971;SDS011;4031;49.758;6.120;2022-12-11T11:28:28;18.67;;;9.07;;
7971;SDS011;4031;49.758;6.120;2022-12-11T11:31:00;19.53;;;8.47;;
7971;SDS011;4031;49.758;6.120;2022-12-11T11:33:28;16.17;;;7.93;;
7971;SDS011;4031;49.758;6.120;2022-12-11T11:35:56;20.57;;;9.03;;
7971;SDS011;4031;49.758;6.120;2022-12-11T11:41:19;13.60;;;8.97;;
7971;SDS011;4031;49.758;6.120;2022-12-11T11:43:52;20.00;;;8.60;;
7971;SDS011;4031;49.758;6.120;2022-12-11T11:52:31;16.43;;;8.97;;
7971;SDS011;4031;49.758;6.120;2022-12-11T11:55:31;17.63;;;8.23;;
7971;SDS011;4031;49.758;6.120;2022-12-11T11:59:05;16.50;;;8.47;;
7971;SDS011;4031;49.758;6.120;2022-12-11T12:01:43;18.70;;;8.67;;
7971;SDS011;4031;49.758;6.120;2022-12-11T12:04:09;15.27;;;7.30;;
7971;SDS011;4031;49.758;6.120;2022-12-11T12:18:28;16.03;;;7.93;;
7971;SDS011;4031;49.758;6.120;2022-12-11T12:26:37;16.80;;;8.73;;
7971;SDS011;4031;49.758;6.120;2022-12-11T12:32:22;15.30;;;6.73;;
7971;SDS011;4031;49.758;6.120;2022-12-11T12:40:52;15.00;;;7.10;;
7971;SDS011;4031;49.758;6.120;2022-12-11T12:52:02;18.70;;;8.55;;
7971;SDS011;4031;49.758;6.120;2022-12-11T12:54:34;21.00;;;10.07;;
7971;SDS011;4031;49.758;6.120;2022-12-11T12:57:01;16.83;;;10.23;;
7971;SDS011;4031;49.758;6.120;2022-12-11T12:59:28;18.80;;;7.83;;
7971;SDS011;4031;49.758;6.120;2022-12-11T13:02:00;14.90;;;7.10;;
7971;SDS011;4031;49.758;6.120;2022-12-11T13:04:36;15.93;;;7.53;;
7971;SDS011;4031;49.758;6.120;2022-12-11T13:07:40;13.60;;;7.60;;
7971;SDS011;4031;49.758;6.120;2022-12-11T13:10:00;19.47;;;8.50;;
7971;SDS011;4031;49.758;6.120;2022-12-11T13:12:52;16.23;;;11.10;;
7971;SDS011;4031;49.758;6.120;2022-12-11T13:17:51;11.57;;;6.63;;
7971;SDS011;4031;49.758;6.120;2022-12-11T13:20:24;18.93;;;8.80;;
7971;SDS011;4031;49.758;6.120;2022-12-11T13:25:31;17.93;;;8.03;;
7971;SDS011;4031;49.758;6.120;2022-12-11T13:28:21;12.53;;;7.20;;
7971;SDS011;4031;49.758;6.120;2022-12-11T13:31:02;14.87;;;7.87;;
7971;SDS011;4031;49.758;6.120;2022-12-11T13:34:04;17.27;;;8.90;;
7971;SDS011;4031;49.758;6.120;2022-12-11T13:36:40;11.23;;;7.20;;
7971;SDS011;4031;49.758;6.120;2022-12-11T13:39:19;19.73;;;9.40;;
7971;SDS011;4031;49.758;6.120;2022-12-11T13:41:54;23.00;;;8.67;;
7971;SDS011;4031;49.758;6.120;2022-12-11T13:44:33;20.00;;;9.25;;
7971;SDS011;4031;49.758;6.120;2022-12-11T13:47:04;19.50;;;9.30;;
7971;SDS011;4031;49.758;6.120;2022-12-11T13:49:36;18.13;;;7.60;;
7971;SDS011;4031;49.758;6.120;2022-12-11T13:52:06;14.98;;;7.32;;
7971;SDS011;4031;49.758;6.120;2022-12-11T13:54:45;15.32;;;7.80;;
7971;SDS011;4031;49.758;6.120;2022-12-11T13:57:18;17.70;;;7.90;;
7971;SDS011;4031;49.758;6.120;2022-12-11T13:59:56;13.43;;;7.13;;
7971;SDS011;4031;49.758;6.120;2022-12-11T14:05:09;22.17;;;10.18;;
7971;SDS011;4031;49.758;6.120;2022-12-11T14:07:40;16.15;;;7.85;;
7971;SDS011;4031;49.758;6.120;2022-12-11T14:10:24;12.18;;;7.20;;
7971;SDS011;4031;49.758;6.120;2022-12-11T14:13:04;19.00;;;8.27;;
7971;SDS011;4031;49.758;6.120;2022-12-11T14:15:41;21.35;;;9.35;;
7971;SDS011;4031;49.758;6.120;2022-12-11T14:18:12;18.80;;;8.65;;
7971;SDS011;4031;49.758;6.120;2022-12-11T14:20:55;23.02;;;10.10;;
7971;SDS011;4031;49.758;6.120;2022-12-11T14:23:27;16.00;;;9.60;;
7971;SDS011;4031;49.758;6.120;2022-12-11T14:26:00;20.63;;;8.73;;
7971;SDS011;4031;49.758;6.120;2022-12-11T14:28:36;14.75;;;9.73;;
7971;SDS011;4031;49.758;6.120;2022-12-11T14:31:06;20.65;;;10.13;;
7971;SDS011;4031;49.758;6.120;2022-12-11T14:33:39;18.73;;;8.57;;
7971;SDS011;4031;49.758;6.120;2022-12-11T14:36:11;16.42;;;8.50;;
7971;SDS011;4031;49.758;6.120;2022-12-11T14:38:42;16.63;;;8.82;;
7971;SDS011;4031;49.758;6.120;2022-12-11T14:41:12;21.90;;;10.30;;
7971;SDS011;4031;49.758;6.120;2022-12-11T14:43:46;24.80;;;10.67;;
7971;SDS011;4031;49.758;6.120;2022-12-11T14:46:20;19.35;;;10.25;;
7971;SDS011;4031;49.758;6.120;2022-12-11T14:48:56;17.58;;;7.97;;
7971;SDS011;4031;49.758;6.120;2022-12-11T14:51:30;19.75;;;9.05;;
7971;SDS011;4031;49.758;6.120;2022-12-11T14:54:03;16.13;;;7.82;;
7971;SDS011;4031;49.758;6.120;2022-12-11T14:56:39;20.45;;;8.93;;
7971;SDS011;4031;49.758;6.120;2022-12-11T14:59:05;14.77;;;8.17;;
7971;SDS011;4031;49.758;6.120;2022-12-11T15:01:43;17.75;;;9.35;;
7971;SDS011;4031;49.758;6.120;2022-12-11T15:04:21;11.82;;;6.35;;
7971;SDS011;4031;49.758;6.120;2022-12-11T15:06:51;17.83;;;7.95;;
7971;SDS011;4031;49.758;6.120;2022-12-11T15:11:45;20.30;;;8.45;;
7971;SDS011;4031;49.758;6.120;2022-12-11T15:14:13;18.75;;;10.73;;
7971;SDS011;4031;49.758;6.120;2022-12-11T15:16:42;17.73;;;9.45;;
7971;SDS011;4031;49.758;6.120;2022-12-11T15:19:17;20.73;;;9.70;;
7971;SDS011;4031;49.758;6.120;2022-12-11T15:21:52;14.68;;;8.10;;
7971;SDS011;4031;49.758;6.120;2022-12-11T15:24:25;15.83;;;8.67;;
7971;SDS011;4031;49.758;6.120;2022-12-11T15:27:03;19.88;;;9.57;;
7971;SDS011;4031;49.758;6.120;2022-12-11T15:29:34;27.55;;;10.52;;
7971;SDS011;4031;49.758;6.120;2022-12-11T15:32:14;17.52;;;9.15;;
7971;SDS011;4031;49.758;6.120;2022-12-11T15:34:50;20.02;;;9.75;;
7971;SDS011;4031;49.758;6.120;2022-12-11T15:37:26;14.40;;;8.15;;
7971;SDS011;4031;49.758;6.120;2022-12-11T15:39:58;17.95;;;9.88;;
7971;SDS011;4031;49.758;6.120;2022-12-11T15:42:28;18.40;;;9.35;;
7971;SDS011;4031;49.758;6.120;2022-12-11T15:44:58;13.35;;;7.88;;
7971;SDS011;4031;49.758;6.120;2022-12-11T15:47:27;13.85;;;8.13;;
7971;SDS011;4031;49.758;6.120;2022-12-11T15:50:00;16.63;;;8.80;;
7971;SDS011;4031;49.758;6.120;2022-12-11T15:52:37;15.65;;;8.07;;
7971;SDS011;4031;49.758;6.120;2022-12-11T15:55:02;17.23;;;8.23;;
7971;SDS011;4031;49.758;6.120;2022-12-11T15:57:28;20.98;;;8.70;;
7971;SDS011;4031;49.758;6.120;2022-12-11T15:59:54;18.43;;;9.67;;
7971;SDS011;4031;49.758;6.120;2022-12-11T16:02:20;19.43;;;9.63;;
7971;SDS011;4031;49.758;6.120;2022-12-11T16:04:48;15.15;;;8.90;;
7971;SDS011;4031;49.758;6.120;2022-12-11T16:07:15;20.30;;;8.63;;
7971;SDS011;4031;49.758;6.120;2022-12-11T16:09:44;14.23;;;8.43;;
7971;SDS011;4031;49.758;6.120;2022-12-11T16:12:10;25.30;;;8.55;;
7971;SDS011;4031;49.758;6.120;2022-12-11T16:14:38;18.30;;;8.90;;
7971;SDS011;4031;49.758;6.120;2022-12-11T16:17:06;19.42;;;8.82;;
7971;SDS011;4031;49.758;6.120;2022-12-11T16:19:33;20.20;;;8.55;;
7971;SDS011;4031;49.758;6.120;2022-12-11T16:21:59;15.60;;;7.72;;
7971;SDS011;4031;49.758;6.120;2022-12-11T16:24:25;18.02;;;9.70;;
7971;SDS011;4031;49.758;6.120;2022-12-11T16:26:51;18.45;;;9.38;;
7971;SDS011;4031;49.758;6.120;2022-12-11T16:29:17;20.30;;;10.20;;
7971;SDS011;4031;49.758;6.120;2022-12-11T16:31:43;17.30;;;8.77;;
7971;SDS011;4031;49.758;6.120;2022-12-11T16:34:08;22.93;;;9.50;;
7971;SDS011;4031;49.758;6.120;2022-12-11T16:36:34;15.03;;;8.30;;
7971;SDS011;4031;49.758;6.120;2022-12-11T16:39:00;19.30;;;10.10;;
7971;SDS011;4031;49.758;6.120;2022-12-11T16:41:26;21.23;;;10.10;;
7971;SDS011;4031;49.758;6.120;2022-12-11T16:43:52;23.70;;;10.20;;
7971;SDS011;4031;49.758;6.120;2022-12-11T16:46:21;20.85;;;8.93;;